الصفحة الرئيسية
METAR-TAF:

METAR-TAF

مطار :

Kerteh, ماليزيا

دائرة عرض: 04-32-15N, خط طول: 103-25-36E, ارتفاع: 5 متر

مراقبة الطقس الحالي

تاريخ ووقت الإصدار 51 دقيقة قبل الساعة 05:00UTC
ريح 5 عقدةمن اتجاهات متغيرة
درجة الحرارة 33°درجة مئوية
الرطوبة 59%
ضغط 1006 hPa
الرؤية 10 كم أو أكثر
غيوم متفرقة على ارتفاع 1700 قدم

METAR: WMKE 190500Z VRB05KT 9999 SCT017 33/24 Q1006

زمن: 13:51 (05:51 UTC)

توقعات

تاريخ ووقت الإصدار 51 دقيقة قبل الساعة 05:00UTC
التوقعات صالحة من19 الساعة 06 UTC إلى 20 الساعة 06 UTC
ريح 6 عقدة من الجنوب الشرقي
الرؤية 10 كم أو أكثر
غيوم قليلة على ارتفاع 1700 قدم

TAF: WMKE 190500Z 1906/2006 13006KT 9999 FEW017

أرصاد الطقس والتوقعات من أكثر من 4000 مطار (تقارير الطقس للمطار METAR والتنبؤ بالطقس بالمطارTAF).

المحطات المتاحة هي النقط الصفراء والحمراء على الخريطة.

حرك المؤشر فوق النقطة لمعرفة اسم المحطة.

ثم انقر لمعرفة أرصاد وتوقعات الطقس.

لتغيير الخارطة: اضغط على الأزرار الخضراء مع رمز الصليب الأسود للتكبير. على الزر الأخضر مع شرطة للتصغير، أو على الأسهم الخضراء للخرائط المجاورة.


METAR-TAF: